sensor_id;sensor_type;location;lat;lon;timestamp;temperature;humidity
12013;DHT22;6065;48.138;16.402;2023-02-03T00:00:22;3.40;99.90
12013;DHT22;6065;48.138;16.402;2023-02-03T00:02:49;3.40;99.90
12013;DHT22;6065;48.138;16.402;2023-02-03T00:05:16;3.40;99.90
12013;DHT22;6065;48.138;16.402;2023-02-03T00:07:44;3.40;99.90
12013;DHT22;6065;48.138;16.402;2023-02-03T00:10:10;3.40;99.90
12013;DHT22;6065;48.138;16.402;2023-02-03T00:12:37;3.40;99.90
12013;DHT22;6065;48.138;16.402;2023-02-03T00:15:04;3.40;99.90
12013;DHT22;6065;48.138;16.402;2023-02-03T00:17:31;3.30;99.90
12013;DHT22;6065;48.138;16.402;2023-02-03T00:19:58;3.40;99.90
12013;DHT22;6065;48.138;16.402;2023-02-03T00:22:24;3.40;99.90
12013;DHT22;6065;48.138;16.402;2023-02-03T00:24:53;3.40;99.90
12013;DHT22;6065;48.138;16.402;2023-02-03T00:27:19;3.40;99.90
12013;DHT22;6065;48.138;16.402;2023-02-03T00:29:46;3.40;99.90
12013;DHT22;6065;48.138;16.402;2023-02-03T00:32:12;3.50;99.90
12013;DHT22;6065;48.138;16.402;2023-02-03T00:34:39;3.40;99.90
12013;DHT22;6065;48.138;16.402;2023-02-03T00:37:06;3.40;99.90
12013;DHT22;6065;48.138;16.402;2023-02-03T00:39:34;3.40;99.90
12013;DHT22;6065;48.138;16.402;2023-02-03T00:42:03;3.40;99.90
12013;DHT22;6065;48.138;16.402;2023-02-03T00:44:30;3.40;99.90
12013;DHT22;6065;48.138;16.402;2023-02-03T00:46:57;3.30;99.90
12013;DHT22;6065;48.138;16.402;2023-02-03T00:49:24;3.40;99.90
12013;DHT22;6065;48.138;16.402;2023-02-03T00:51:51;3.30;99.90
12013;DHT22;6065;48.138;16.402;2023-02-03T00:54:17;3.30;99.90
12013;DHT22;6065;48.138;16.402;2023-02-03T00:56:44;3.30;99.90
12013;DHT22;6065;48.138;16.402;2023-02-03T00:59:12;3.40;99.90
12013;DHT22;6065;48.138;16.402;2023-02-03T01:01:39;3.40;99.90
12013;DHT22;6065;48.138;16.402;2023-02-03T01:04:06;3.40;99.90
12013;DHT22;6065;48.138;16.402;2023-02-03T01:06:32;3.40;99.90
12013;DHT22;6065;48.138;16.402;2023-02-03T01:09:00;3.40;99.90
12013;DHT22;6065;48.138;16.402;2023-02-03T01:11:26;3.40;99.90
12013;DHT22;6065;48.138;16.402;2023-02-03T01:13:54;3.30;99.90
12013;DHT22;6065;48.138;16.402;2023-02-03T01:16:22;3.30;99.90
12013;DHT22;6065;48.138;16.402;2023-02-03T01:18:50;3.30;99.90
12013;DHT22;6065;48.138;16.402;2023-02-03T01:21:18;3.30;99.90
12013;DHT22;6065;48.138;16.402;2023-02-03T01:23:45;3.30;99.90
12013;DHT22;6065;48.138;16.402;2023-02-03T01:26:13;3.30;99.90
12013;DHT22;6065;48.138;16.402;2023-02-03T01:28:40;3.30;99.90
12013;DHT22;6065;48.138;16.402;2023-02-03T01:31:08;3.30;99.90
12013;DHT22;6065;48.138;16.402;2023-02-03T01:33:36;3.30;99.90
12013;DHT22;6065;48.138;16.402;2023-02-03T01:36:05;3.30;99.90
12013;DHT22;6065;48.138;16.402;2023-02-03T01:38:32;3.30;99.90
12013;DHT22;6065;48.138;16.402;2023-02-03T01:40:59;3.30;99.90
12013;DHT22;6065;48.138;16.402;2023-02-03T01:43:29;3.30;99.90
12013;DHT22;6065;48.138;16.402;2023-02-03T01:45:56;3.30;99.90
12013;DHT22;6065;48.138;16.402;2023-02-03T01:48:23;3.30;99.90
12013;DHT22;6065;48.138;16.402;2023-02-03T01:50:51;3.30;99.90
12013;DHT22;6065;48.138;16.402;2023-02-03T01:53:18;3.30;99.90
12013;DHT22;6065;48.138;16.402;2023-02-03T01:55:46;3.30;99.90
12013;DHT22;6065;48.138;16.402;2023-02-03T01:58:14;3.30;99.90
12013;DHT22;6065;48.138;16.402;2023-02-03T02:00:41;3.30;99.90
12013;DHT22;6065;48.138;16.402;2023-02-03T02:03:08;3.30;99.90
12013;DHT22;6065;48.138;16.402;2023-02-03T02:05:37;3.30;99.90
12013;DHT22;6065;48.138;16.402;2023-02-03T02:08:06;3.30;99.90
12013;DHT22;6065;48.138;16.402;2023-02-03T02:10:32;3.20;99.90
12013;DHT22;6065;48.138;16.402;2023-02-03T02:12:59;3.20;99.90
12013;DHT22;6065;48.138;16.402;2023-02-03T02:15:30;3.30;99.90
12013;DHT22;6065;48.138;16.402;2023-02-03T02:18:02;3.30;99.90
12013;DHT22;6065;48.138;16.402;2023-02-03T02:20:33;3.30;99.90
12013;DHT22;6065;48.138;16.402;2023-02-03T02:25:50;3.30;99.90
12013;DHT22;6065;48.138;16.402;2023-02-03T02:31:14;3.30;99.90
12013;DHT22;6065;48.138;16.402;2023-02-03T02:33:48;3.30;99.90
12013;DHT22;6065;48.138;16.402;2023-02-03T02:36:18;3.30;99.90
12013;DHT22;6065;48.138;16.402;2023-02-03T02:38:51;3.30;99.90
12013;DHT22;6065;48.138;16.402;2023-02-03T02:41:22;3.30;99.90
12013;DHT22;6065;48.138;16.402;2023-02-03T02:43:50;3.40;99.90
12013;DHT22;6065;48.138;16.402;2023-02-03T02:46:21;3.30;99.90
12013;DHT22;6065;48.138;16.402;2023-02-03T02:48:52;3.30;99.90
12013;DHT22;6065;48.138;16.402;2023-02-03T02:51:20;3.30;99.90
12013;DHT22;6065;48.138;16.402;2023-02-03T02:53:50;3.40;99.90
12013;DHT22;6065;48.138;16.402;2023-02-03T02:56:19;3.30;99.90
12013;DHT22;6065;48.138;16.402;2023-02-03T02:58:47;3.40;99.90
12013;DHT22;6065;48.138;16.402;2023-02-03T03:01:15;3.30;99.90
12013;DHT22;6065;48.138;16.402;2023-02-03T03:03:42;3.30;99.90
12013;DHT22;6065;48.138;16.402;2023-02-03T03:06:12;3.30;99.90
12013;DHT22;6065;48.138;16.402;2023-02-03T03:08:41;3.30;99.90
12013;DHT22;6065;48.138;16.402;2023-02-03T03:11:09;3.30;99.90
12013;DHT22;6065;48.138;16.402;2023-02-03T03:13:37;3.30;99.90
12013;DHT22;6065;48.138;16.402;2023-02-03T03:16:06;3.30;99.90
12013;DHT22;6065;48.138;16.402;2023-02-03T03:18:35;3.30;99.90
12013;DHT22;6065;48.138;16.402;2023-02-03T03:21:03;3.20;99.90
12013;DHT22;6065;48.138;16.402;2023-02-03T03:23:33;3.30;99.90
12013;DHT22;6065;48.138;16.402;2023-02-03T03:26:06;3.20;99.90
12013;DHT22;6065;48.138;16.402;2023-02-03T03:28:34;3.20;99.90
12013;DHT22;6065;48.138;16.402;2023-02-03T03:31:03;3.20;99.90
12013;DHT22;6065;48.138;16.402;2023-02-03T03:33:30;3.20;99.90
12013;DHT22;6065;48.138;16.402;2023-02-03T03:35:58;3.20;99.90
12013;DHT22;6065;48.138;16.402;2023-02-03T03:38:28;3.20;99.90
12013;DHT22;6065;48.138;16.402;2023-02-03T03:41:00;3.20;99.90
12013;DHT22;6065;48.138;16.402;2023-02-03T03:43:29;3.20;99.90
12013;DHT22;6065;48.138;16.402;2023-02-03T03:45:57;3.20;99.90
12013;DHT22;6065;48.138;16.402;2023-02-03T03:48:26;3.20;99.90
12013;DHT22;6065;48.138;16.402;2023-02-03T03:50:55;3.20;99.90
12013;DHT22;6065;48.138;16.402;2023-02-03T03:53:23;3.20;99.90
12013;DHT22;6065;48.138;16.402;2023-02-03T03:55:51;3.20;99.90
12013;DHT22;6065;48.138;16.402;2023-02-03T03:58:21;3.20;99.90
12013;DHT22;6065;48.138;16.402;2023-02-03T04:00:49;3.20;99.90
12013;DHT22;6065;48.138;16.402;2023-02-03T04:03:20;3.20;99.90
12013;DHT22;6065;48.138;16.402;2023-02-03T04:05:47;3.10;99.90
12013;DHT22;6065;48.138;16.402;2023-02-03T04:08:14;3.20;99.90
12013;DHT22;6065;48.138;16.402;2023-02-03T04:10:41;3.20;99.90
12013;DHT22;6065;48.138;16.402;2023-02-03T04:13:09;3.10;99.90
12013;DHT22;6065;48.138;16.402;2023-02-03T04:15:37;3.10;99.90
12013;DHT22;6065;48.138;16.402;2023-02-03T04:18:05;3.10;99.90
12013;DHT22;6065;48.138;16.402;2023-02-03T04:20:32;3.10;99.90
12013;DHT22;6065;48.138;16.402;2023-02-03T04:22:58;3.20;99.90
12013;DHT22;6065;48.138;16.402;2023-02-03T04:25:26;3.20;99.90
12013;DHT22;6065;48.138;16.402;2023-02-03T04:27:53;3.20;99.90
12013;DHT22;6065;48.138;16.402;2023-02-03T04:30:20;3.20;99.90
12013;DHT22;6065;48.138;16.402;2023-02-03T04:32:48;3.20;99.90
12013;DHT22;6065;48.138;16.402;2023-02-03T04:35:15;3.20;99.90
12013;DHT22;6065;48.138;16.402;2023-02-03T04:37:42;3.20;99.90
12013;DHT22;6065;48.138;16.402;2023-02-03T04:40:09;3.20;99.90
12013;DHT22;6065;48.138;16.402;2023-02-03T04:42:36;3.20;99.90
12013;DHT22;6065;48.138;16.402;2023-02-03T04:45:03;3.20;99.90
12013;DHT22;6065;48.138;16.402;2023-02-03T04:47:30;3.20;99.90
12013;DHT22;6065;48.138;16.402;2023-02-03T04:49:58;3.10;99.90
12013;DHT22;6065;48.138;16.402;2023-02-03T04:52:25;3.20;99.90
12013;DHT22;6065;48.138;16.402;2023-02-03T04:54:52;3.10;99.90
12013;DHT22;6065;48.138;16.402;2023-02-03T04:57:19;3.20;99.90
12013;DHT22;6065;48.138;16.402;2023-02-03T04:59:45;3.20;99.90
12013;DHT22;6065;48.138;16.402;2023-02-03T05:02:13;3.20;99.90
12013;DHT22;6065;48.138;16.402;2023-02-03T05:04:39;3.20;99.90
12013;DHT22;6065;48.138;16.402;2023-02-03T05:07:08;3.20;99.90
12013;DHT22;6065;48.138;16.402;2023-02-03T05:09:34;3.10;99.90
12013;DHT22;6065;48.138;16.402;2023-02-03T05:12:01;3.20;99.90
12013;DHT22;6065;48.138;16.402;2023-02-03T05:14:28;3.20;99.90
12013;DHT22;6065;48.138;16.402;2023-02-03T05:16:54;3.20;99.90
12013;DHT22;6065;48.138;16.402;2023-02-03T05:19:21;3.20;99.90
12013;DHT22;6065;48.138;16.402;2023-02-03T05:21:48;3.20;99.90
12013;DHT22;6065;48.138;16.402;2023-02-03T05:24:16;3.20;99.90
12013;DHT22;6065;48.138;16.402;2023-02-03T05:26:43;3.30;99.90
12013;DHT22;6065;48.138;16.402;2023-02-03T05:29:09;3.30;99.90
12013;DHT22;6065;48.138;16.402;2023-02-03T05:31:37;3.30;99.90
12013;DHT22;6065;48.138;16.402;2023-02-03T05:34:03;3.40;99.90
12013;DHT22;6065;48.138;16.402;2023-02-03T05:36:30;3.50;99.90
12013;DHT22;6065;48.138;16.402;2023-02-03T05:38:57;3.50;99.90
12013;DHT22;6065;48.138;16.402;2023-02-03T05:41:25;3.50;99.90
12013;DHT22;6065;48.138;16.402;2023-02-03T05:44:09;3.50;99.90
12013;DHT22;6065;48.138;16.402;2023-02-03T05:46:36;3.60;99.90
12013;DHT22;6065;48.138;16.402;2023-02-03T05:49:03;3.60;99.90
12013;DHT22;6065;48.138;16.402;2023-02-03T05:51:30;3.60;99.90
12013;DHT22;6065;48.138;16.402;2023-02-03T05:53:56;3.70;99.90
12013;DHT22;6065;48.138;16.402;2023-02-03T05:56:23;3.70;99.90
12013;DHT22;6065;48.138;16.402;2023-02-03T05:58:52;3.80;99.90
12013;DHT22;6065;48.138;16.402;2023-02-03T06:01:18;3.80;99.90
12013;DHT22;6065;48.138;16.402;2023-02-03T06:03:45;3.80;99.90
12013;DHT22;6065;48.138;16.402;2023-02-03T06:06:12;3.90;99.90
12013;DHT22;6065;48.138;16.402;2023-02-03T06:08:39;3.90;99.90
12013;DHT22;6065;48.138;16.402;2023-02-03T06:11:05;3.90;99.90
12013;DHT22;6065;48.138;16.402;2023-02-03T06:13:32;3.90;99.90
12013;DHT22;6065;48.138;16.402;2023-02-03T06:16:00;3.90;99.90
12013;DHT22;6065;48.138;16.402;2023-02-03T06:18:27;4.00;99.90
12013;DHT22;6065;48.138;16.402;2023-02-03T06:20:53;4.00;99.90
12013;DHT22;6065;48.138;16.402;2023-02-03T06:23:20;4.00;99.90
12013;DHT22;6065;48.138;16.402;2023-02-03T06:25:47;4.00;99.90
12013;DHT22;6065;48.138;16.402;2023-02-03T06:28:14;4.10;99.90
12013;DHT22;6065;48.138;16.402;2023-02-03T06:30:41;4.10;99.90
12013;DHT22;6065;48.138;16.402;2023-02-03T06:33:09;4.00;99.90
12013;DHT22;6065;48.138;16.402;2023-02-03T06:35:35;4.10;99.90
12013;DHT22;6065;48.138;16.402;2023-02-03T06:38:02;4.10;99.90
12013;DHT22;6065;48.138;16.402;2023-02-03T06:40:29;4.10;99.90
12013;DHT22;6065;48.138;16.402;2023-02-03T06:42:55;4.10;99.90
12013;DHT22;6065;48.138;16.402;2023-02-03T06:45:22;4.10;99.90
12013;DHT22;6065;48.138;16.402;2023-02-03T06:47:49;4.10;99.90
12013;DHT22;6065;48.138;16.402;2023-02-03T06:50:17;4.10;99.90
12013;DHT22;6065;48.138;16.402;2023-02-03T06:52:44;4.20;99.90
12013;DHT22;6065;48.138;16.402;2023-02-03T06:55:10;4.20;99.90
12013;DHT22;6065;48.138;16.402;2023-02-03T06:57:41;4.20;99.90
12013;DHT22;6065;48.138;16.402;2023-02-03T07:00:08;4.20;99.90
12013;DHT22;6065;48.138;16.402;2023-02-03T07:02:35;4.30;99.90
12013;DHT22;6065;48.138;16.402;2023-02-03T07:05:02;4.40;99.90
12013;DHT22;6065;48.138;16.402;2023-02-03T07:07:31;4.40;99.90
12013;DHT22;6065;48.138;16.402;2023-02-03T07:09:58;4.50;99.90
12013;DHT22;6065;48.138;16.402;2023-02-03T07:12:25;4.50;99.90
12013;DHT22;6065;48.138;16.402;2023-02-03T07:14:51;4.50;99.90
12013;DHT22;6065;48.138;16.402;2023-02-03T07:17:18;4.50;99.90
12013;DHT22;6065;48.138;16.402;2023-02-03T07:19:45;4.50;99.90
12013;DHT22;6065;48.138;16.402;2023-02-03T07:22:12;4.50;99.90
12013;DHT22;6065;48.138;16.402;2023-02-03T07:24:40;4.50;99.90
12013;DHT22;6065;48.138;16.402;2023-02-03T07:27:07;4.50;99.90
12013;DHT22;6065;48.138;16.402;2023-02-03T07:29:34;4.50;99.90
12013;DHT22;6065;48.138;16.402;2023-02-03T07:32:00;4.60;99.90
12013;DHT22;6065;48.138;16.402;2023-02-03T07:34:27;4.60;99.90
12013;DHT22;6065;48.138;16.402;2023-02-03T07:36:54;4.60;99.90
12013;DHT22;6065;48.138;16.402;2023-02-03T07:39:20;4.60;99.90
12013;DHT22;6065;48.138;16.402;2023-02-03T07:41:49;4.60;99.90
12013;DHT22;6065;48.138;16.402;2023-02-03T07:44:15;4.60;99.90
12013;DHT22;6065;48.138;16.402;2023-02-03T07:46:42;4.60;99.90
12013;DHT22;6065;48.138;16.402;2023-02-03T07:49:10;4.70;99.90
12013;DHT22;6065;48.138;16.402;2023-02-03T07:51:36;4.70;99.90
12013;DHT22;6065;48.138;16.402;2023-02-03T07:54:03;4.70;99.90
12013;DHT22;6065;48.138;16.402;2023-02-03T07:56:30;4.70;99.90
12013;DHT22;6065;48.138;16.402;2023-02-03T07:58:58;4.70;99.90
12013;DHT22;6065;48.138;16.402;2023-02-03T08:01:25;4.80;99.90
12013;DHT22;6065;48.138;16.402;2023-02-03T08:03:52;4.80;99.90
12013;DHT22;6065;48.138;16.402;2023-02-03T08:06:19;4.80;99.90
12013;DHT22;6065;48.138;16.402;2023-02-03T08:08:46;4.90;99.90
12013;DHT22;6065;48.138;16.402;2023-02-03T08:11:13;4.90;99.90
12013;DHT22;6065;48.138;16.402;2023-02-03T08:13:40;4.90;99.90
12013;DHT22;6065;48.138;16.402;2023-02-03T08:16:08;5.00;99.90
12013;DHT22;6065;48.138;16.402;2023-02-03T08:18:35;5.00;99.90
12013;DHT22;6065;48.138;16.402;2023-02-03T08:21:01;5.00;99.90
12013;DHT22;6065;48.138;16.402;2023-02-03T08:23:29;5.10;99.90
12013;DHT22;6065;48.138;16.402;2023-02-03T08:25:55;5.10;99.90
12013;DHT22;6065;48.138;16.402;2023-02-03T08:28:22;5.10;99.90
12013;DHT22;6065;48.138;16.402;2023-02-03T08:30:49;5.10;99.90
12013;DHT22;6065;48.138;16.402;2023-02-03T08:33:17;5.20;99.90
12013;DHT22;6065;48.138;16.402;2023-02-03T08:35:45;5.20;99.90
12013;DHT22;6065;48.138;16.402;2023-02-03T08:38:11;5.20;99.90
12013;DHT22;6065;48.138;16.402;2023-02-03T08:40:38;5.30;99.90
12013;DHT22;6065;48.138;16.402;2023-02-03T08:43:05;5.30;99.90
12013;DHT22;6065;48.138;16.402;2023-02-03T08:45:32;5.30;99.90
12013;DHT22;6065;48.138;16.402;2023-02-03T08:47:59;5.30;99.90
12013;DHT22;6065;48.138;16.402;2023-02-03T08:50:27;5.40;99.90
12013;DHT22;6065;48.138;16.402;2023-02-03T08:52:54;5.50;99.90
12013;DHT22;6065;48.138;16.402;2023-02-03T08:55:21;5.50;99.90
12013;DHT22;6065;48.138;16.402;2023-02-03T08:57:49;5.50;99.90
12013;DHT22;6065;48.138;16.402;2023-02-03T09:00:16;5.50;99.90
12013;DHT22;6065;48.138;16.402;2023-02-03T09:02:43;5.50;99.90
12013;DHT22;6065;48.138;16.402;2023-02-03T09:05:09;5.60;99.90
12013;DHT22;6065;48.138;16.402;2023-02-03T09:07:38;5.60;99.90
12013;DHT22;6065;48.138;16.402;2023-02-03T09:10:05;5.70;99.90
12013;DHT22;6065;48.138;16.402;2023-02-03T09:12:32;5.70;99.90
12013;DHT22;6065;48.138;16.402;2023-02-03T09:14:58;5.70;99.90
12013;DHT22;6065;48.138;16.402;2023-02-03T09:17:25;5.80;99.90
12013;DHT22;6065;48.138;16.402;2023-02-03T09:19:52;5.90;99.90
12013;DHT22;6065;48.138;16.402;2023-02-03T09:22:19;5.90;99.90
12013;DHT22;6065;48.138;16.402;2023-02-03T09:24:47;5.90;99.90
12013;DHT22;6065;48.138;16.402;2023-02-03T09:27:15;5.90;99.90
12013;DHT22;6065;48.138;16.402;2023-02-03T09:29:42;6.00;99.90
12013;DHT22;6065;48.138;16.402;2023-02-03T09:32:09;6.00;99.90
12013;DHT22;6065;48.138;16.402;2023-02-03T09:34:36;6.00;99.90
12013;DHT22;6065;48.138;16.402;2023-02-03T09:37:04;6.10;99.90
12013;DHT22;6065;48.138;16.402;2023-02-03T09:39:30;6.20;99.90
12013;DHT22;6065;48.138;16.402;2023-02-03T09:44:45;6.20;99.90
12013;DHT22;6065;48.138;16.402;2023-02-03T09:47:14;6.20;99.90
12013;DHT22;6065;48.138;16.402;2023-02-03T09:49:43;6.30;99.90
12013;DHT22;6065;48.138;16.402;2023-02-03T09:52:12;6.30;99.90
12013;DHT22;6065;48.138;16.402;2023-02-03T09:54:40;6.30;99.90
12013;DHT22;6065;48.138;16.402;2023-02-03T09:57:11;6.40;99.90
12013;DHT22;6065;48.138;16.402;2023-02-03T09:59:39;6.40;99.90
12013;DHT22;6065;48.138;16.402;2023-02-03T10:02:12;6.50;99.90
12013;DHT22;6065;48.138;16.402;2023-02-03T10:04:46;6.60;99.90
12013;DHT22;6065;48.138;16.402;2023-02-03T10:07:16;6.50;99.90
12013;DHT22;6065;48.138;16.402;2023-02-03T10:09:51;6.60;99.90
12013;DHT22;6065;48.138;16.402;2023-02-03T10:12:28;6.60;99.90
12013;DHT22;6065;48.138;16.402;2023-02-03T10:15:02;6.60;99.90
12013;DHT22;6065;48.138;16.402;2023-02-03T10:17:38;6.60;99.90
12013;DHT22;6065;48.138;16.402;2023-02-03T10:20:09;6.60;99.90
12013;DHT22;6065;48.138;16.402;2023-02-03T10:22:41;6.60;99.90
12013;DHT22;6065;48.138;16.402;2023-02-03T10:25:14;6.70;99.90
12013;DHT22;6065;48.138;16.402;2023-02-03T10:27:42;6.70;99.90
12013;DHT22;6065;48.138;16.402;2023-02-03T10:30:14;6.70;99.90
12013;DHT22;6065;48.138;16.402;2023-02-03T10:32:43;6.80;99.90
12013;DHT22;6065;48.138;16.402;2023-02-03T10:35:10;6.80;99.90
12013;DHT22;6065;48.138;16.402;2023-02-03T10:37:38;6.80;99.90
12013;DHT22;6065;48.138;16.402;2023-02-03T10:40:10;6.80;99.90
12013;DHT22;6065;48.138;16.402;2023-02-03T10:42:37;6.80;99.90
12013;DHT22;6065;48.138;16.402;2023-02-03T10:45:18;6.80;99.90
12013;DHT22;6065;48.138;16.402;2023-02-03T10:47:48;6.80;99.90
12013;DHT22;6065;48.138;16.402;2023-02-03T10:50:17;6.80;99.90
12013;DHT22;6065;48.138;16.402;2023-02-03T10:52:44;6.70;99.90
12013;DHT22;6065;48.138;16.402;2023-02-03T10:57:54;6.80;99.90
12013;DHT22;6065;48.138;16.402;2023-02-03T11:00:22;6.80;99.90
12013;DHT22;6065;48.138;16.402;2023-02-03T11:02:57;6.90;99.90
12013;DHT22;6065;48.138;16.402;2023-02-03T11:05:25;6.80;99.90
12013;DHT22;6065;48.138;16.402;2023-02-03T11:07:52;6.80;99.90
12013;DHT22;6065;48.138;16.402;2023-02-03T11:10:27;6.80;99.90
12013;DHT22;6065;48.138;16.402;2023-02-03T11:13:05;6.90;99.90
12013;DHT22;6065;48.138;16.402;2023-02-03T11:15:36;6.90;99.90
12013;DHT22;6065;48.138;16.402;2023-02-03T11:18:04;6.90;99.90
12013;DHT22;6065;48.138;16.402;2023-02-03T11:20:32;6.90;99.90
12013;DHT22;6065;48.138;16.402;2023-02-03T11:23:02;6.90;99.90
12013;DHT22;6065;48.138;16.402;2023-02-03T11:25:31;7.00;99.90
12013;DHT22;6065;48.138;16.402;2023-02-03T11:28:02;7.00;99.90
12013;DHT22;6065;48.138;16.402;2023-02-03T11:30:31;7.10;99.90
12013;DHT22;6065;48.138;16.402;2023-02-03T11:32:59;7.00;99.90
12013;DHT22;6065;48.138;16.402;2023-02-03T11:35:28;7.00;99.90
12013;DHT22;6065;48.138;16.402;2023-02-03T11:37:57;7.00;99.90
12013;DHT22;6065;48.138;16.402;2023-02-03T11:40:24;7.00;99.90
12013;DHT22;6065;48.138;16.402;2023-02-03T11:42:58;7.00;99.90
12013;DHT22;6065;48.138;16.402;2023-02-03T11:45:26;7.00;99.90
12013;DHT22;6065;48.138;16.402;2023-02-03T11:47:53;7.00;99.90
12013;DHT22;6065;48.138;16.402;2023-02-03T11:50:22;7.00;99.90
12013;DHT22;6065;48.138;16.402;2023-02-03T11:52:59;7.00;99.90
12013;DHT22;6065;48.138;16.402;2023-02-03T11:55:32;7.00;99.90
12013;DHT22;6065;48.138;16.402;2023-02-03T11:58:04;7.00;99.90
12013;DHT22;6065;48.138;16.402;2023-02-03T12:00:36;7.00;99.90
12013;DHT22;6065;48.138;16.402;2023-02-03T12:03:17;7.10;99.90
12013;DHT22;6065;48.138;16.402;2023-02-03T12:05:56;7.00;99.90
12013;DHT22;6065;48.138;16.402;2023-02-03T12:08:29;7.10;99.90
12013;DHT22;6065;48.138;16.402;2023-02-03T12:11:01;7.10;99.90
12013;DHT22;6065;48.138;16.402;2023-02-03T12:13:32;7.10;99.90
12013;DHT22;6065;48.138;16.402;2023-02-03T12:16:05;7.00;99.90
12013;DHT22;6065;48.138;16.402;2023-02-03T12:18:41;7.00;99.90
12013;DHT22;6065;48.138;16.402;2023-02-03T12:21:16;7.00;99.90
12013;DHT22;6065;48.138;16.402;2023-02-03T12:23:52;7.00;99.90
12013;DHT22;6065;48.138;16.402;2023-02-03T12:26:22;6.90;99.90
12013;DHT22;6065;48.138;16.402;2023-02-03T12:28:52;7.00;99.90
12013;DHT22;6065;48.138;16.402;2023-02-03T12:31:23;6.90;99.90
12013;DHT22;6065;48.138;16.402;2023-02-03T12:33:56;6.90;99.90
12013;DHT22;6065;48.138;16.402;2023-02-03T12:36:25;6.90;99.90
12013;DHT22;6065;48.138;16.402;2023-02-03T12:38:55;7.00;99.90
12013;DHT22;6065;48.138;16.402;2023-02-03T12:41:25;7.00;99.90
12013;DHT22;6065;48.138;16.402;2023-02-03T12:43:53;7.00;99.90
12013;DHT22;6065;48.138;16.402;2023-02-03T12:46:25;7.00;99.90
12013;DHT22;6065;48.138;16.402;2023-02-03T12:48:53;7.10;99.90
12013;DHT22;6065;48.138;16.402;2023-02-03T12:51:28;7.10;99.90
12013;DHT22;6065;48.138;16.402;2023-02-03T12:53:59;7.10;99.90
12013;DHT22;6065;48.138;16.402;2023-02-03T12:56:29;7.10;99.90
12013;DHT22;6065;48.138;16.402;2023-02-03T12:58:59;7.10;99.90
12013;DHT22;6065;48.138;16.402;2023-02-03T13:01:30;7.10;99.90
12013;DHT22;6065;48.138;16.402;2023-02-03T13:03:59;7.10;99.90
12013;DHT22;6065;48.138;16.402;2023-02-03T13:06:30;7.10;99.90
12013;DHT22;6065;48.138;16.402;2023-02-03T13:09:00;7.10;99.90
12013;DHT22;6065;48.138;16.402;2023-02-03T13:11:29;7.10;99.90
12013;DHT22;6065;48.138;16.402;2023-02-03T13:13:59;7.10;99.90
12013;DHT22;6065;48.138;16.402;2023-02-03T13:16:30;7.10;99.90
12013;DHT22;6065;48.138;16.402;2023-02-03T13:19:01;7.10;99.90
12013;DHT22;6065;48.138;16.402;2023-02-03T13:21:29;7.10;99.90
12013;DHT22;6065;48.138;16.402;2023-02-03T13:37:10;7.20;99.90
12013;DHT22;6065;48.138;16.402;2023-02-03T13:39:50;7.20;99.90
12013;DHT22;6065;48.138;16.402;2023-02-03T13:42:20;7.20;99.90
12013;DHT22;6065;48.138;16.402;2023-02-03T13:44:50;7.30;99.90
12013;DHT22;6065;48.138;16.402;2023-02-03T13:47:20;7.30;99.90
12013;DHT22;6065;48.138;16.402;2023-02-03T13:49:48;7.20;99.90
12013;DHT22;6065;48.138;16.402;2023-02-03T13:52:23;7.20;99.90
12013;DHT22;6065;48.138;16.402;2023-02-03T13:54:51;7.20;99.90
12013;DHT22;6065;48.138;16.402;2023-02-03T13:57:19;7.20;99.90
12013;DHT22;6065;48.138;16.402;2023-02-03T13:59:47;7.20;99.90
12013;DHT22;6065;48.138;16.402;2023-02-03T14:02:37;7.20;99.90
12013;DHT22;6065;48.138;16.402;2023-02-03T14:05:06;7.20;99.90
12013;DHT22;6065;48.138;16.402;2023-02-03T14:07:37;7.10;99.90
12013;DHT22;6065;48.138;16.402;2023-02-03T14:10:08;7.10;99.90
12013;DHT22;6065;48.138;16.402;2023-02-03T14:12:41;7.00;99.90
12013;DHT22;6065;48.138;16.402;2023-02-03T14:15:29;6.90;99.90
12013;DHT22;6065;48.138;16.402;2023-02-03T14:18:00;6.90;99.90
12013;DHT22;6065;48.138;16.402;2023-02-03T14:23:21;6.80;99.90
12013;DHT22;6065;48.138;16.402;2023-02-03T14:25:51;6.80;99.90
12013;DHT22;6065;48.138;16.402;2023-02-03T14:28:20;6.70;99.90
12013;DHT22;6065;48.138;16.402;2023-02-03T14:33:48;6.60;99.90
12013;DHT22;6065;48.138;16.402;2023-02-03T14:36:26;6.60;99.90
12013;DHT22;6065;48.138;16.402;2023-02-03T14:38:55;6.60;99.90
12013;DHT22;6065;48.138;16.402;2023-02-03T14:41:24;6.50;99.90
12013;DHT22;6065;48.138;16.402;2023-02-03T14:43:54;6.50;99.90
12013;DHT22;6065;48.138;16.402;2023-02-03T15:02:10;6.40;99.90
12013;DHT22;6065;48.138;16.402;2023-02-03T15:04:40;6.40;99.90
12013;DHT22;6065;48.138;16.402;2023-02-03T15:09:36;6.40;99.90
12013;DHT22;6065;48.138;16.402;2023-02-03T15:12:13;6.40;99.90
12013;DHT22;6065;48.138;16.402;2023-02-03T15:14:42;6.40;99.90
12013;DHT22;6065;48.138;16.402;2023-02-03T15:17:23;6.40;99.90
12013;DHT22;6065;48.138;16.402;2023-02-03T15:19:50;6.40;99.90
12013;DHT22;6065;48.138;16.402;2023-02-03T15:22:18;6.40;99.90
12013;DHT22;6065;48.138;16.402;2023-02-03T15:24:46;6.40;99.90
12013;DHT22;6065;48.138;16.402;2023-02-03T15:27:20;6.40;99.90
12013;DHT22;6065;48.138;16.402;2023-02-03T15:37:34;6.40;99.90
12013;DHT22;6065;48.138;16.402;2023-02-03T15:40:06;6.40;99.90
12013;DHT22;6065;48.138;16.402;2023-02-03T15:42:41;6.40;99.90
12013;DHT22;6065;48.138;16.402;2023-02-03T15:45:14;6.40;99.90
12013;DHT22;6065;48.138;16.402;2023-02-03T15:47:45;6.40;99.90
12013;DHT22;6065;48.138;16.402;2023-02-03T15:53:02;6.40;99.90
12013;DHT22;6065;48.138;16.402;2023-02-03T15:55:31;6.40;99.90
12013;DHT22;6065;48.138;16.402;2023-02-03T15:58:00;6.50;99.90
12013;DHT22;6065;48.138;16.402;2023-02-03T16:00:30;6.50;99.90
12013;DHT22;6065;48.138;16.402;2023-02-03T16:02:57;6.50;99.90
12013;DHT22;6065;48.138;16.402;2023-02-03T16:05:25;6.60;99.90
12013;DHT22;6065;48.138;16.402;2023-02-03T16:07:53;6.60;99.90
12013;DHT22;6065;48.138;16.402;2023-02-03T16:10:28;6.50;99.90
12013;DHT22;6065;48.138;16.402;2023-02-03T16:13:13;6.50;99.90
12013;DHT22;6065;48.138;16.402;2023-02-03T16:16:00;6.60;99.90
12013;DHT22;6065;48.138;16.402;2023-02-03T16:18:30;6.60;99.90
12013;DHT22;6065;48.138;16.402;2023-02-03T16:20:58;6.70;99.90
12013;DHT22;6065;48.138;16.402;2023-02-03T16:23:24;6.60;99.90
12013;DHT22;6065;48.138;16.402;2023-02-03T16:26:02;6.60;99.90
12013;DHT22;6065;48.138;16.402;2023-02-03T16:28:32;6.60;99.90
12013;DHT22;6065;48.138;16.402;2023-02-03T16:31:16;6.60;99.90
12013;DHT22;6065;48.138;16.402;2023-02-03T16:34:04;6.60;99.90
12013;DHT22;6065;48.138;16.402;2023-02-03T16:36:52;6.70;99.90
12013;DHT22;6065;48.138;16.402;2023-02-03T16:39:36;6.70;99.90
12013;DHT22;6065;48.138;16.402;2023-02-03T16:42:22;6.70;99.90
12013;DHT22;6065;48.138;16.402;2023-02-03T16:45:11;6.70;99.90
12013;DHT22;6065;48.138;16.402;2023-02-03T16:47:55;6.70;99.90
12013;DHT22;6065;48.138;16.402;2023-02-03T16:50:39;6.70;99.90
12013;DHT22;6065;48.138;16.402;2023-02-03T16:53:20;6.80;99.90
12013;DHT22;6065;48.138;16.402;2023-02-03T16:55:48;6.80;99.90